Time;durP1;ratioP1;P1;durP2;ratioP2;P2;SDS_P1;SDS_P2;PMS_P1;PMS_P2;Temp;Humidity;BMP_temperature;BMP_pressure;BME280_temperature;BME280_humidity;BME280_pressure;Samples;Min_cycle;Max_cycle;Signal;HPM_P1;HPM_P2
2022/08/06 00:00:49;;;;;;;0.85;0.32;;;23.80;75.00;;;;;;5035983;27;45408;-67
2022/08/06 00:03:16;;;;;;;1.13;0.30;;;23.70;74.90;;;;;;5034722;28;45312;-67
2022/08/06 00:05:44;;;;;;;0.75;0.40;;;23.70;74.90;;;;;;5034570;27;46988;-68
2022/08/06 00:08:11;;;;;;;0.68;0.30;;;23.70;74.90;;;;;;5032446;28;45272;-67
2022/08/06 00:10:38;;;;;;;0.50;0.30;;;23.70;74.80;;;;;;5032560;27;45499;-68
2022/08/06 00:13:04;;;;;;;1.95;0.40;;;23.70;74.70;;;;;;5032157;28;45406;-68
2022/08/06 00:15:32;;;;;;;0.47;0.40;;;23.80;74.90;;;;;;5033778;27;45342;-68
2022/08/06 00:17:58;;;;;;;1.45;0.40;;;23.70;74.70;;;;;;5039030;28;45433;-67
2022/08/06 00:20:25;;;;;;;1.17;0.47;;;23.80;74.90;;;;;;5036680;28;45261;-67
2022/08/06 00:22:54;;;;;;;0.90;0.32;;;23.70;74.70;;;;;;5037306;28;45257;-68
2022/08/06 00:25:21;;;;;;;0.40;0.30;;;23.70;74.50;;;;;;5034522;28;46245;-67
2022/08/06 00:27:47;;;;;;;1.10;0.38;;;23.70;74.30;;;;;;5037204;28;45463;-67
2022/08/06 00:30:14;;;;;;;0.70;0.38;;;23.70;74.10;;;;;;5036017;28;45229;-67
2022/08/06 00:32:41;;;;;;;0.95;0.60;;;23.70;74.00;;;;;;5037570;28;45394;-67
2022/08/06 00:35:08;;;;;;;0.28;0.28;;;23.70;73.80;;;;;;5037461;28;47532;-67
2022/08/06 00:37:36;;;;;;;0.63;0.40;;;23.70;73.60;;;;;;5037275;28;45475;-67
2022/08/06 00:40:05;;;;;;;0.63;0.30;;;23.70;73.40;;;;;;5037119;27;45437;-67
2022/08/06 00:42:31;;;;;;;0.63;0.40;;;23.70;73.30;;;;;;5033751;28;45310;-67
2022/08/06 00:44:59;;;;;;;0.75;0.40;;;23.70;73.20;;;;;;5037670;27;46371;-67
2022/08/06 00:47:26;;;;;;;1.48;0.47;;;23.70;73.20;;;;;;5034719;27;45436;-68
2022/08/06 00:49:53;;;;;;;2.53;0.40;;;23.70;73.10;;;;;;5020380;28;45319;-67
2022/08/06 00:52:20;;;;;;;0.50;0.40;;;23.70;73.20;;;;;;5037180;28;45420;-68
2022/08/06 00:54:46;;;;;;;1.35;0.35;;;23.70;73.20;;;;;;5047571;28;46197;-67
2022/08/06 00:57:15;;;;;;;0.47;0.40;;;23.70;73.40;;;;;;5037822;28;45284;-68
2022/08/06 00:59:41;;;;;;;0.65;0.40;;;23.70;73.20;;;;;;5037568;28;45458;-67
2022/08/06 01:02:08;;;;;;;1.27;0.28;;;23.70;73.20;;;;;;5035994;28;45580;-67
2022/08/06 01:04:35;;;;;;;1.27;0.50;;;23.70;73.20;;;;;;5038646;28;46088;-67
2022/08/06 01:07:02;;;;;;;0.60;0.38;;;23.70;73.20;;;;;;5037720;28;45261;-67
2022/08/06 01:09:28;;;;;;;1.42;0.50;;;23.70;73.10;;;;;;5037985;28;45239;-67
2022/08/06 01:11:55;;;;;;;0.82;0.30;;;23.70;73.00;;;;;;5035383;28;45434;-68
2022/08/06 01:14:23;;;;;;;0.40;0.40;;;23.70;73.10;;;;;;5036408;28;46461;-67
2022/08/06 01:16:55;;;;;;;0.95;0.40;;;23.70;72.90;;;;;;5037741;28;45280;-67
2022/08/06 01:19:42;;;;;;;0.52;0.32;;;23.70;72.90;;;;;;5034980;28;45313;-68
2022/08/06 01:22:20;;;;;;;1.67;0.45;;;23.70;72.80;;;;;;5036728;28;45352;-67
2022/08/06 01:25:09;;;;;;;0.40;0.30;;;23.70;72.80;;;;;;5039670;28;45377;-68
2022/08/06 01:27:46;;;;;;;0.93;0.47;;;23.70;72.60;;;;;;5041692;28;45566;-67
2022/08/06 01:30:15;;;;;;;0.95;0.45;;;23.70;72.60;;;;;;5041176;28;45308;-69
2022/08/06 01:32:49;;;;;;;0.45;0.38;;;23.70;72.60;;;;;;5051804;27;45540;-68
2022/08/06 01:35:20;;;;;;;1.00;0.43;;;23.70;72.50;;;;;;5038875;28;48317;-67
2022/08/06 01:37:53;;;;;;;0.30;0.30;;;23.70;72.50;;;;;;5019732;28;45460;-68
2022/08/06 01:40:23;;;;;;;0.65;0.40;;;23.70;72.40;;;;;;5019514;28;45455;-67
2022/08/06 01:42:53;;;;;;;0.82;0.40;;;23.70;72.30;;;;;;5037361;28;45194;-67
2022/08/06 01:45:23;;;;;;;2.08;0.50;;;23.70;72.20;;;;;;5039469;28;47067;-67
2022/08/06 01:47:54;;;;;;;1.70;0.40;;;23.70;72.00;;;;;;5037539;28;45335;-68
2022/08/06 01:50:25;;;;;;;0.75;0.40;;;23.70;72.00;;;;;;5038628;28;45347;-67
2022/08/06 01:52:54;;;;;;;1.67;0.45;;;23.70;71.90;;;;;;5039566;28;45210;-67
2022/08/06 01:55:22;;;;;;;0.95;0.50;;;23.70;71.90;;;;;;5038917;28;45265;-67
2022/08/06 01:57:56;;;;;;;0.73;0.32;;;23.60;71.80;;;;;;5039249;28;45309;-67
2022/08/06 02:00:23;;;;;;;0.93;0.35;;;23.60;71.60;;;;;;5040917;28;45428;-67
2022/08/06 02:02:52;;;;;;;1.70;0.45;;;23.70;71.80;;;;;;5040652;28;45238;-68
2022/08/06 02:05:22;;;;;;;1.25;0.50;;;23.70;71.80;;;;;;5041343;28;46608;-67
2022/08/06 02:07:52;;;;;;;1.30;0.57;;;23.60;71.70;;;;;;5042166;28;45701;-67
2022/08/06 02:10:22;;;;;;;1.33;0.50;;;23.60;71.60;;;;;;5040218;28;45302;-68
2022/08/06 02:12:49;;;;;;;1.08;0.35;;;23.60;71.70;;;;;;5042778;28;45453;-67
2022/08/06 02:15:21;;;;;;;0.95;0.40;;;23.60;71.50;;;;;;5042033;28;46416;-66
2022/08/06 02:17:53;;;;;;;0.43;0.38;;;23.60;71.40;;;;;;5042172;28;46095;-67
2022/08/06 02:20:27;;;;;;;0.63;0.52;;;23.60;70.90;;;;;;5041202;28;45282;-67
2022/08/06 02:22:56;;;;;;;0.55;0.32;;;23.60;70.70;;;;;;5022680;28;45399;-67
2022/08/06 02:25:24;;;;;;;1.85;0.60;;;23.60;70.60;;;;;;5033610;28;45462;-68
2022/08/06 02:27:55;;;;;;;0.68;0.47;;;23.60;70.40;;;;;;5041572;28;45755;-67
2022/08/06 02:30:25;;;;;;;0.65;0.20;;;23.60;70.30;;;;;;5039532;27;45450;-67
2022/08/06 02:32:52;;;;;;;0.75;0.50;;;23.60;70.00;;;;;;5030869;28;45321;-67
2022/08/06 02:35:18;;;;;;;0.45;0.30;;;23.60;69.80;;;;;;5032383;28;47314;-66
2022/08/06 02:37:49;;;;;;;0.95;0.60;;;23.60;69.70;;;;;;5039820;28;45368;-67
2022/08/06 02:40:22;;;;;;;1.83;0.50;;;23.60;69.60;;;;;;5041473;28;45294;-67
2022/08/06 02:43:02;;;;;;;0.60;0.43;;;23.60;69.40;;;;;;5024318;28;45291;-67
2022/08/06 02:45:36;;;;;;;0.60;0.50;;;23.60;69.40;;;;;;5021533;28;47106;-67
2022/08/06 02:48:13;;;;;;;0.40;0.40;;;23.60;69.10;;;;;;5022115;28;45352;-67
2022/08/06 02:50:42;;;;;;;1.20;0.40;;;23.60;69.00;;;;;;5029087;28;45407;-67
2022/08/06 02:53:10;;;;;;;2.08;0.65;;;23.60;69.00;;;;;;5042918;28;45517;-67
2022/08/06 02:55:40;;;;;;;0.80;0.50;;;23.60;68.90;;;;;;5052149;28;46606;-67
2022/08/06 02:58:12;;;;;;;0.70;0.50;;;23.60;68.80;;;;;;5052871;28;45363;-67
2022/08/06 03:00:45;;;;;;;1.27;0.55;;;23.60;68.70;;;;;;5054629;28;45397;-68
2022/08/06 03:03:15;;;;;;;0.57;0.43;;;23.60;68.50;;;;;;5041779;28;45421;-68
2022/08/06 03:05:44;;;;;;;0.65;0.35;;;23.50;68.30;;;;;;5055232;28;46279;-68
2022/08/06 03:08:15;;;;;;;1.08;0.60;;;23.50;68.20;;;;;;5043726;28;45405;-67
2022/08/06 03:10:43;;;;;;;1.05;0.40;;;23.50;68.20;;;;;;5038968;28;45500;-68
2022/08/06 03:13:10;;;;;;;1.77;0.55;;;23.50;68.00;;;;;;5041329;28;45504;-67
2022/08/06 03:15:38;;;;;;;0.77;0.50;;;23.50;67.80;;;;;;5040976;28;48129;-67
2022/08/06 03:18:07;;;;;;;0.77;0.60;;;23.50;67.90;;;;;;5041054;28;45352;-67
2022/08/06 03:20:36;;;;;;;0.55;0.47;;;23.50;67.60;;;;;;5040588;28;45406;-67
2022/08/06 03:23:08;;;;;;;0.82;0.60;;;23.50;67.90;;;;;;5041111;28;45262;-69
2022/08/06 03:25:37;;;;;;;1.13;0.60;;;23.50;67.50;;;;;;5040301;28;46499;-67
2022/08/06 03:28:05;;;;;;;0.30;0.30;;;23.50;67.60;;;;;;5040815;28;45471;-67
2022/08/06 03:30:32;;;;;;;0.90;0.55;;;23.50;67.40;;;;;;5040693;28;45533;-67
2022/08/06 03:33:01;;;;;;;1.50;0.60;;;23.50;67.40;;;;;;5041126;28;45505;-67
2022/08/06 03:35:33;;;;;;;1.13;0.60;;;23.50;67.30;;;;;;5040764;28;46329;-67
2022/08/06 03:38:01;;;;;;;0.52;0.40;;;23.50;67.10;;;;;;5039024;28;45350;-68
2022/08/06 03:40:30;;;;;;;1.05;0.50;;;23.50;66.80;;;;;;5038187;28;45441;-67
2022/08/06 03:42:57;;;;;;;0.77;0.63;;;23.50;66.50;;;;;;5038034;27;45604;-67
2022/08/06 03:45:26;;;;;;;1.25;0.63;;;23.50;66.40;;;;;;5040495;28;47363;-68
2022/08/06 03:47:56;;;;;;;0.93;0.70;;;23.50;66.40;;;;;;5040957;28;45234;-67
2022/08/06 03:50:28;;;;;;;1.73;0.75;;;23.50;66.10;;;;;;5037494;28;45478;-67
2022/08/06 03:53:01;;;;;;;0.50;0.50;;;23.50;66.40;;;;;;5021511;28;45357;-68
2022/08/06 03:55:31;;;;;;;0.43;0.30;;;23.50;66.20;;;;;;5020481;28;48028;-67
2022/08/06 03:58:05;;;;;;;0.90;0.50;;;23.50;66.00;;;;;;5021233;28;45241;-67
2022/08/06 04:00:45;;;;;;;0.98;0.50;;;23.50;66.00;;;;;;5035976;28;45665;-68
2022/08/06 04:03:15;;;;;;;1.52;0.47;;;23.50;65.70;;;;;;5028856;28;45421;-67
2022/08/06 04:05:42;;;;;;;0.90;0.50;;;23.50;66.90;;;;;;5039905;27;48743;-67
2022/08/06 04:08:12;;;;;;;1.45;0.60;;;23.50;65.80;;;;;;5041041;28;45414;-69
2022/08/06 04:10:42;;;;;;;0.65;0.40;;;23.50;65.70;;;;;;5039149;28;45371;-67
2022/08/06 04:13:11;;;;;;;0.70;0.50;;;23.50;65.60;;;;;;5044363;28;45541;-67
2022/08/06 04:15:39;;;;;;;2.00;0.57;;;23.50;65.40;;;;;;5051261;28;46726;-67
2022/08/06 04:18:09;;;;;;;0.90;0.65;;;23.50;65.60;;;;;;5043853;28;45314;-67
2022/08/06 04:20:38;;;;;;;1.50;0.60;;;23.50;65.50;;;;;;5054844;28;45419;-67
2022/08/06 04:23:05;;;;;;;1.63;0.50;;;23.50;65.40;;;;;;5051033;28;45447;-69
2022/08/06 04:25:41;;;;;;;0.40;0.40;;;23.50;66.50;;;;;;5059457;28;48034;-68
2022/08/06 04:28:10;;;;;;;1.10;0.50;;;23.50;65.10;;;;;;5052146;27;45320;-67
2022/08/06 04:30:39;;;;;;;1.25;0.60;;;23.50;65.20;;;;;;5060142;28;45379;-67
2022/08/06 04:33:09;;;;;;;0.77;0.50;;;23.50;65.20;;;;;;5060664;28;45278;-69
2022/08/06 04:35:38;;;;;;;0.73;0.47;;;23.50;65.50;;;;;;5052679;28;46325;-68
2022/08/06 04:38:06;;;;;;;0.30;0.30;;;23.50;65.60;;;;;;5040224;28;45276;-67
2022/08/06 04:40:34;;;;;;;0.45;0.40;;;23.50;65.60;;;;;;5039866;28;45286;-67
2022/08/06 04:43:01;;;;;;;1.00;0.50;;;23.50;66.70;;;;;;5121669;27;45281;-67
2022/08/06 04:45:29;;;;;;;0.68;0.40;;;23.50;65.90;;;;;;5124386;27;45424;-68
2022/08/06 04:47:57;;;;;;;0.73;0.40;;;23.50;66.10;;;;;;5125294;27;45235;-67
2022/08/06 04:50:24;;;;;;;1.17;0.40;;;23.50;66.10;;;;;;5123728;27;45345;-67
2022/08/06 04:52:51;;;;;;;2.00;0.68;;;23.50;65.80;;;;;;5061521;27;45369;-69
2022/08/06 04:55:19;;;;;;;0.77;0.50;;;23.50;65.70;;;;;;5033463;28;46400;-68
2022/08/06 04:57:47;;;;;;;0.65;0.60;;;23.50;65.50;;;;;;5040576;28;45442;-68
2022/08/06 05:00:15;;;;;;;1.05;0.40;;;23.50;65.40;;;;;;5041968;28;45317;-67
2022/08/06 05:02:42;;;;;;;1.42;0.52;;;23.50;65.20;;;;;;5044177;28;45319;-67
2022/08/06 05:05:10;;;;;;;0.90;0.60;;;23.50;65.20;;;;;;5051187;28;45327;-68
2022/08/06 05:07:39;;;;;;;0.68;0.40;;;23.50;65.10;;;;;;5059723;28;46777;-68
2022/08/06 05:10:07;;;;;;;1.40;0.55;;;23.50;64.90;;;;;;5020795;28;45309;-69
2022/08/06 05:12:38;;;;;;;0.75;0.43;;;23.50;64.90;;;;;;5043383;28;45626;-67
2022/08/06 05:15:09;;;;;;;1.70;0.50;;;23.50;64.70;;;;;;5049145;28;45407;-68
2022/08/06 05:17:40;;;;;;;0.65;0.55;;;23.50;64.80;;;;;;5040057;28;45388;-67
2022/08/06 05:20:15;;;;;;;0.43;0.43;;;23.60;65.00;;;;;;5045702;27;45400;-67
2022/08/06 05:22:43;;;;;;;1.45;0.47;;;23.50;64.80;;;;;;5051330;28;45383;-67
2022/08/06 05:25:10;;;;;;;0.68;0.50;;;23.50;64.90;;;;;;5045574;28;46267;-67
2022/08/06 05:27:39;;;;;;;0.73;0.50;;;23.50;64.80;;;;;;5039313;28;45229;-68
2022/08/06 05:30:09;;;;;;;1.10;0.65;;;23.50;64.70;;;;;;5047571;28;45501;-67
2022/08/06 05:32:41;;;;;;;1.65;0.60;;;23.60;64.70;;;;;;5051550;28;45426;-67
2022/08/06 05:35:09;;;;;;;0.82;0.50;;;23.50;64.40;;;;;;5057803;28;45437;-67
2022/08/06 05:37:36;;;;;;;0.43;0.43;;;23.50;64.90;;;;;;5059907;28;45388;-67
2022/08/06 05:40:03;;;;;;;0.45;0.40;;;23.50;64.80;;;;;;5059577;28;45641;-67
2022/08/06 05:42:30;;;;;;;1.45;0.68;;;23.50;65.00;;;;;;5044697;28;45566;-67
2022/08/06 05:44:56;;;;;;;0.40;0.40;;;23.60;65.60;;;;;;5040046;27;45366;-67
2022/08/06 05:47:28;;;;;;;1.17;0.60;;;23.50;65.50;;;;;;5039374;28;45275;-67
2022/08/06 05:50:02;;;;;;;0.55;0.50;;;23.60;65.70;;;;;;5038891;28;45340;-67
2022/08/06 05:52:34;;;;;;;0.50;0.50;;;23.60;65.90;;;;;;5041777;28;45455;-67
2022/08/06 05:55:04;;;;;;;0.40;0.40;;;23.50;66.10;;;;;;5039257;28;45466;-67
2022/08/06 05:57:37;;;;;;;1.23;0.57;;;23.60;66.10;;;;;;5037863;27;45334;-67
2022/08/06 06:00:09;;;;;;;1.50;0.50;;;23.60;66.40;;;;;;5028040;27;45482;-68
2022/08/06 06:02:40;;;;;;;0.47;0.47;;;23.60;66.40;;;;;;5036254;28;45268;-67
2022/08/06 06:05:08;;;;;;;0.30;0.30;;;23.60;66.70;;;;;;5038884;28;45371;-67
2022/08/06 06:07:35;;;;;;;3.17;0.60;;;23.60;67.60;;;;;;5039017;27;45412;-67
2022/08/06 06:10:03;;;;;;;1.65;0.73;;;23.60;66.40;;;;;;5037372;28;45497;-67
2022/08/06 06:12:31;;;;;;;1.00;0.63;;;23.60;66.30;;;;;;5038667;28;45450;-67
2022/08/06 06:14:58;;;;;;;1.83;0.50;;;23.60;66.30;;;;;;5038552;28;46547;-68
2022/08/06 06:17:42;;;;;;;0.75;0.57;;;23.60;66.30;;;;;;5027838;27;45256;-67
2022/08/06 06:20:17;;;;;;;1.52;0.60;;;23.60;66.10;;;;;;5038161;28;45278;-68
2022/08/06 06:22:52;;;;;;;0.90;0.55;;;23.60;66.00;;;;;;5051533;28;45499;-67
2022/08/06 06:25:33;;;;;;;1.42;0.50;;;23.60;65.90;;;;;;5047934;28;47158;-67
2022/08/06 06:28:05;;;;;;;1.85;0.73;;;23.60;65.90;;;;;;5046852;28;45355;-67
2022/08/06 06:30:41;;;;;;;0.45;0.40;;;23.60;65.90;;;;;;5018263;28;45350;-67
2022/08/06 06:33:19;;;;;;;1.45;0.70;;;23.60;66.10;;;;;;5043017;28;45391;-67
2022/08/06 06:35:52;;;;;;;1.50;0.63;;;23.60;66.10;;;;;;5042455;28;46555;-67
2022/08/06 06:38:32;;;;;;;1.30;0.50;;;23.60;66.20;;;;;;5038329;27;45465;-67
2022/08/06 06:41:08;;;;;;;1.65;0.63;;;23.60;66.20;;;;;;5032838;27;45242;-68
2022/08/06 06:43:41;;;;;;;1.30;0.50;;;23.60;66.30;;;;;;5018846;28;45420;-67
2022/08/06 06:46:16;;;;;;;0.90;0.60;;;23.60;66.40;;;;;;5030826;28;46528;-67
2022/08/06 06:48:47;;;;;;;1.30;0.70;;;23.60;66.40;;;;;;5041618;28;45694;-67
2022/08/06 06:51:20;;;;;;;1.00;0.68;;;23.50;66.30;;;;;;5041415;27;45450;-68
2022/08/06 06:53:49;;;;;;;0.93;0.63;;;23.60;66.40;;;;;;5042451;28;45384;-68
2022/08/06 06:56:20;;;;;;;1.92;0.80;;;23.60;66.40;;;;;;5050821;27;46416;-67
2022/08/06 06:58:51;;;;;;;2.58;1.05;;;23.60;66.40;;;;;;5038367;28;45735;-67
2022/08/06 07:01:20;;;;;;;1.58;0.70;;;23.60;66.40;;;;;;5036651;28;45578;-67
2022/08/06 07:03:50;;;;;;;1.25;0.80;;;23.60;66.30;;;;;;5034362;28;45528;-68
2022/08/06 07:06:18;;;;;;;3.25;0.82;;;23.60;66.40;;;;;;5035182;28;46381;-67
2022/08/06 07:08:47;;;;;;;1.00;0.70;;;23.50;66.30;;;;;;5037201;27;45332;-68
2022/08/06 07:11:19;;;;;;;2.40;0.88;;;23.50;66.40;;;;;;5043160;28;45388;-68
2022/08/06 07:13:47;;;;;;;2.42;0.68;;;23.60;66.50;;;;;;5041437;27;45364;-68
2022/08/06 07:16:17;;;;;;;2.75;1.10;;;23.50;66.40;;;;;;5041071;28;45257;-67
2022/08/06 07:18:45;;;;;;;1.67;0.90;;;23.60;66.50;;;;;;5040816;28;45277;-67
2022/08/06 07:21:15;;;;;;;1.33;0.85;;;23.60;66.60;;;;;;5030307;28;45346;-68
2022/08/06 07:23:43;;;;;;;2.13;1.00;;;23.60;66.80;;;;;;5040817;28;45378;-68
2022/08/06 07:26:13;;;;;;;1.80;1.02;;;23.60;66.80;;;;;;5044268;28;48074;-68
2022/08/06 07:28:40;;;;;;;2.08;0.95;;;23.60;67.00;;;;;;5053751;28;45445;-67
2022/08/06 07:31:08;;;;;;;1.33;0.80;;;23.60;67.00;;;;;;5051293;28;45529;-67
2022/08/06 07:33:36;;;;;;;4.28;1.02;;;23.60;67.10;;;;;;5053043;28;45536;-67
2022/08/06 07:36:05;;;;;;;4.05;1.33;;;23.60;67.20;;;;;;5047159;28;47778;-68
2022/08/06 07:38:37;;;;;;;2.35;1.10;;;23.60;67.20;;;;;;5048565;28;46283;-67
2022/08/06 07:41:06;;;;;;;2.50;1.33;;;23.60;67.20;;;;;;5040539;28;45555;-67
2022/08/06 07:43:37;;;;;;;3.80;1.27;;;23.60;67.30;;;;;;5031666;27;45478;-68
2022/08/06 07:46:07;;;;;;;3.35;1.17;;;23.60;67.20;;;;;;5041120;28;45526;-68
2022/08/06 07:48:39;;;;;;;3.42;1.48;;;23.60;67.10;;;;;;5032683;28;45388;-67
2022/08/06 07:51:07;;;;;;;3.78;1.88;;;23.60;67.10;;;;;;5035374;28;45398;-67
2022/08/06 07:53:38;;;;;;;3.65;1.80;;;23.60;67.10;;;;;;5034825;28;45713;-68
2022/08/06 07:56:06;;;;;;;4.60;1.88;;;23.60;67.20;;;;;;5036095;28;46283;-68
2022/08/06 07:58:34;;;;;;;3.42;1.67;;;23.60;67.10;;;;;;5035582;28;45490;-68
2022/08/06 08:01:02;;;;;;;3.85;1.65;;;23.60;67.10;;;;;;5036718;27;45276;-67
2022/08/06 08:06:18;;;;;;;6.10;2.20;;;23.60;66.80;;;;;;5034015;27;45464;-67
2022/08/06 08:08:47;;;;;;;3.25;1.90;;;23.60;66.60;;;;;;5035570;28;45393;-68
2022/08/06 08:11:16;;;;;;;3.55;1.80;;;23.60;66.30;;;;;;5035695;28;45322;-68
2022/08/06 08:13:43;;;;;;;4.63;2.03;;;23.60;66.30;;;;;;5035840;28;45536;-68
2022/08/06 08:16:13;;;;;;;6.38;2.35;;;23.60;66.30;;;;;;5037070;28;45360;-67
2022/08/06 08:18:41;;;;;;;5.75;2.10;;;23.60;66.10;;;;;;5036864;27;45434;-67
2022/08/06 08:21:10;;;;;;;3.25;1.77;;;23.60;66.10;;;;;;5035805;28;45430;-68
2022/08/06 08:23:40;;;;;;;3.03;1.40;;;23.60;65.90;;;;;;5034155;28;45315;-68
2022/08/06 08:26:09;;;;;;;3.05;1.60;;;23.60;66.90;;;;;;5036563;28;46630;-68
2022/08/06 08:28:37;;;;;;;3.90;1.73;;;23.60;65.90;;;;;;5037036;27;45200;-67
2022/08/06 08:31:05;;;;;;;3.28;1.85;;;23.60;65.70;;;;;;5037292;28;45415;-67
2022/08/06 08:33:33;;;;;;;3.63;1.60;;;23.60;65.60;;;;;;5038258;28;45545;-67
2022/08/06 08:36:01;;;;;;;2.72;1.55;;;23.60;65.60;;;;;;5035852;28;47040;-67
2022/08/06 08:38:28;;;;;;;2.47;1.30;;;23.60;65.50;;;;;;5036214;27;45520;-67
2022/08/06 08:40:57;;;;;;;4.15;1.80;;;23.60;66.40;;;;;;5035704;28;45327;-67
2022/08/06 08:43:30;;;;;;;6.07;1.80;;;23.50;65.10;;;;;;5038576;28;45439;-68
2022/08/06 08:45:59;;;;;;;3.25;1.35;;;23.50;64.90;;;;;;5036321;27;48465;-67
2022/08/06 08:48:30;;;;;;;5.93;1.80;;;23.50;64.50;;;;;;5038593;28;45715;-67
2022/08/06 08:50:59;;;;;;;3.67;1.40;;;23.50;64.20;;;;;;5038875;28;45345;-68
2022/08/06 08:53:33;;;;;;;4.15;2.08;;;23.50;64.20;;;;;;5038904;28;45232;-67
2022/08/06 08:56:02;;;;;;;3.03;1.67;;;23.50;63.70;;;;;;5036074;28;45342;-67
2022/08/06 08:58:31;;;;;;;4.82;1.77;;;23.50;63.10;;;;;;5040364;28;45492;-68
2022/08/06 09:00:58;;;;;;;5.90;1.75;;;23.60;63.40;;;;;;5045260;28;45525;-67
2022/08/06 09:03:26;;;;;;;3.72;1.70;;;23.60;63.70;;;;;;5042717;28;45524;-68
2022/08/06 09:05:52;;;;;;;5.10;1.70;;;23.60;63.10;;;;;;5039194;28;48661;-67
2022/08/06 09:08:20;;;;;;;2.63;1.40;;;23.60;62.90;;;;;;5038149;28;45791;-68
2022/08/06 09:10:48;;;;;;;5.35;1.55;;;23.60;63.40;;;;;;5034780;27;45470;-67
2022/08/06 09:13:14;;;;;;;2.60;1.65;;;23.60;62.60;;;;;;5035067;28;45324;-68
2022/08/06 09:15:43;;;;;;;3.80;1.77;;;23.60;62.00;;;;;;5031952;28;45513;-67
2022/08/06 09:18:09;;;;;;;4.53;1.40;;;23.60;61.90;;;;;;5038362;28;45333;-67
2022/08/06 09:20:37;;;;;;;4.68;1.90;;;23.60;61.70;;;;;;5036632;28;45394;-68
2022/08/06 09:23:04;;;;;;;3.70;1.65;;;23.60;61.40;;;;;;5038379;28;45525;-68
2022/08/06 09:25:42;;;;;;;4.43;2.00;;;23.60;61.00;;;;;;5037802;27;46568;-67
2022/08/06 09:28:27;;;;;;;3.28;1.60;;;23.70;60.50;;;;;;5036889;28;45399;-67
2022/08/06 09:31:00;;;;;;;3.88;1.80;;;23.60;60.60;;;;;;5033648;27;45358;-67
2022/08/06 09:33:27;;;;;;;4.28;2.08;;;23.60;60.40;;;;;;5037910;28;45462;-68
2022/08/06 09:36:01;;;;;;;4.75;2.33;;;23.60;60.50;;;;;;5037771;27;48667;-67
2022/08/06 09:38:29;;;;;;;6.10;2.28;;;23.60;60.00;;;;;;5036993;28;45353;-67
2022/08/06 09:41:07;;;;;;;5.20;2.00;;;23.60;60.10;;;;;;5037683;28;45331;-67
2022/08/06 09:43:35;;;;;;;4.57;1.88;;;23.60;60.30;;;;;;5037792;28;45562;-67
2022/08/06 09:46:04;;;;;;;5.80;2.45;;;23.60;60.90;;;;;;5036146;28;46238;-68
2022/08/06 09:48:30;;;;;;;5.35;2.30;;;23.60;60.50;;;;;;5034268;28;45376;-67
2022/08/06 09:50:57;;;;;;;7.00;2.15;;;23.70;61.30;;;;;;5041949;28;45401;-68
2022/08/06 09:53:25;;;;;;;3.60;2.05;;;23.70;61.30;;;;;;5037295;28;45690;-67
2022/08/06 09:55:54;;;;;;;3.95;1.90;;;23.70;61.40;;;;;;5033936;28;47329;-67
2022/08/06 09:58:33;;;;;;;4.97;2.00;;;23.70;61.40;;;;;;5033430;27;45497;-67
2022/08/06 10:01:13;;;;;;;5.22;2.40;;;23.70;60.90;;;;;;5033219;28;45527;-69
2022/08/06 10:03:41;;;;;;;4.20;1.88;;;23.70;60.60;;;;;;5035954;28;45429;-68
2022/08/06 10:06:10;;;;;;;3.83;2.10;;;23.70;61.30;;;;;;5033859;28;46090;-68
2022/08/06 10:08:37;;;;;;;5.55;2.20;;;23.70;61.50;;;;;;5037472;27;45450;-68
2022/08/06 10:11:06;;;;;;;3.53;1.90;;;23.70;61.50;;;;;;5033915;28;45326;-67
2022/08/06 10:13:34;;;;;;;2.60;1.67;;;23.70;61.50;;;;;;5035234;28;45518;-68
2022/08/06 10:16:15;;;;;;;2.30;1.55;;;23.70;61.30;;;;;;5031380;28;46605;-69
2022/08/06 10:18:46;;;;;;;3.53;1.65;;;23.70;61.30;;;;;;5034661;27;45401;-67
2022/08/06 10:21:14;;;;;;;3.38;2.00;;;23.70;61.40;;;;;;5035396;28;45406;-67
2022/08/06 10:23:44;;;;;;;2.83;1.73;;;23.70;61.50;;;;;;5039568;27;45631;-67
2022/08/06 10:26:12;;;;;;;2.72;1.75;;;23.70;61.60;;;;;;5035019;27;45392;-67
2022/08/06 10:28:42;;;;;;;3.42;1.98;;;23.70;61.60;;;;;;5037421;28;45522;-67
2022/08/06 10:31:11;;;;;;;4.50;1.80;;;23.70;61.50;;;;;;5036411;28;45530;-68
2022/08/06 10:33:45;;;;;;;5.03;2.20;;;23.70;61.40;;;;;;5037142;27;45420;-69
2022/08/06 10:36:15;;;;;;;2.75;2.10;;;23.70;61.30;;;;;;5036328;27;46403;-66
2022/08/06 10:38:46;;;;;;;3.53;2.20;;;23.70;61.20;;;;;;5038170;28;45533;-67
2022/08/06 10:41:14;;;;;;;4.30;2.17;;;23.70;61.10;;;;;;5037565;28;45249;-67
2022/08/06 10:43:41;;;;;;;3.83;2.28;;;23.70;60.90;;;;;;5037922;28;45335;-68
2022/08/06 10:46:10;;;;;;;4.00;1.77;;;23.70;61.00;;;;;;5036806;28;48409;-67
2022/08/06 10:48:39;;;;;;;5.55;2.05;;;23.70;61.20;;;;;;5037831;28;45467;-67
2022/08/06 10:51:10;;;;;;;5.95;2.47;;;23.70;61.50;;;;;;5033285;28;45346;-67
2022/08/06 10:53:39;;;;;;;3.20;1.58;;;23.70;61.60;;;;;;5036211;28;45378;-67
2022/08/06 10:56:26;;;;;;;2.97;1.55;;;23.70;61.50;;;;;;5041823;28;47703;-68
2022/08/06 10:58:54;;;;;;;2.92;1.40;;;23.70;61.30;;;;;;5040850;28;45340;-67
2022/08/06 11:01:33;;;;;;;2.15;1.58;;;23.70;61.30;;;;;;5036651;27;45500;-68
2022/08/06 11:04:14;;;;;;;3.13;1.50;;;23.70;61.30;;;;;;5037997;28;46654;-69
2022/08/06 11:07:28;;;;;;;3.67;1.58;;;23.80;61.10;;;;;;5035844;28;46631;-68
2022/08/06 11:10:06;;;;;;;2.28;1.38;;;23.70;60.70;;;;;;5057104;28;45440;-68
2022/08/06 11:12:47;;;;;;;2.28;1.23;;;23.70;61.00;;;;;;5058635;28;45358;-68
2022/08/06 11:15:15;;;;;;;2.33;1.17;;;23.70;60.90;;;;;;5040703;27;45465;-67
2022/08/06 11:17:44;;;;;;;2.03;1.30;;;23.70;60.90;;;;;;5040217;27;47064;-68
2022/08/06 11:20:37;;;;;;;2.35;1.27;;;23.80;61.10;;;;;;5037610;28;45435;-68
2022/08/06 11:23:21;;;;;;;3.25;1.50;;;23.70;60.70;;;;;;5037090;28;45351;-67
2022/08/06 11:25:51;;;;;;;1.10;1.00;;;23.80;61.00;;;;;;5035925;28;45574;-68
2022/08/06 11:28:19;;;;;;;1.80;1.20;;;23.70;61.00;;;;;;5034515;27;46568;-68
2022/08/06 11:30:48;;;;;;;2.00;1.10;;;23.70;61.20;;;;;;5035418;28;45413;-68
2022/08/06 11:33:16;;;;;;;1.95;1.05;;;23.70;61.40;;;;;;5031721;27;45698;-67
2022/08/06 11:35:48;;;;;;;1.65;1.05;;;23.80;61.60;;;;;;5036471;28;45430;-67
2022/08/06 11:38:37;;;;;;;2.28;1.10;;;23.80;61.80;;;;;;5033005;27;47637;-67
2022/08/06 11:41:10;;;;;;;2.97;1.10;;;23.80;61.90;;;;;;5037451;28;45413;-67
2022/08/06 11:44:05;;;;;;;1.42;1.02;;;23.80;62.00;;;;;;5035812;27;45591;-67
2022/08/06 11:46:33;;;;;;;1.27;0.82;;;23.80;61.90;;;;;;5036474;27;45800;-68
2022/08/06 11:49:16;;;;;;;1.40;1.20;;;23.80;61.80;;;;;;5036542;28;45294;-67
2022/08/06 11:51:45;;;;;;;2.00;1.30;;;23.80;61.70;;;;;;5032584;28;45374;-67
2022/08/06 11:54:16;;;;;;;1.38;0.80;;;23.80;62.70;;;;;;5036420;28;45365;-68
2022/08/06 11:57:20;;;;;;;2.42;1.10;;;23.80;61.60;;;;;;5038646;28;45545;-67
2022/08/06 12:00:03;;;;;;;1.30;1.00;;;23.80;61.40;;;;;;5016939;28;47484;-67
2022/08/06 12:02:53;;;;;;;1.92;1.02;;;23.80;61.50;;;;;;5035629;28;45337;-67
2022/08/06 12:05:36;;;;;;;0.90;0.77;;;23.80;61.50;;;;;;5037176;27;45415;-67
2022/08/06 12:08:21;;;;;;;2.55;0.80;;;23.80;61.60;;;;;;5031205;27;45636;-67
2022/08/06 12:11:27;;;;;;;2.45;1.00;;;23.80;61.50;;;;;;5037593;28;46086;-67
2022/08/06 12:13:56;;;;;;;1.40;0.88;;;23.80;61.50;;;;;;5038685;27;45510;-67
2022/08/06 12:16:37;;;;;;;2.15;1.00;;;23.80;61.70;;;;;;5037471;28;45349;-67
2022/08/06 12:19:07;;;;;;;1.73;0.90;;;23.80;61.80;;;;;;5038508;28;45440;-67
2022/08/06 12:21:34;;;;;;;1.83;0.70;;;23.80;61.90;;;;;;5038776;28;45390;-67
2022/08/06 12:24:02;;;;;;;1.48;0.90;;;23.80;62.00;;;;;;5039371;28;45376;-67
2022/08/06 12:26:35;;;;;;;1.80;0.85;;;23.80;62.10;;;;;;5038719;28;45238;-68
2022/08/06 12:29:05;;;;;;;0.93;0.80;;;23.80;62.20;;;;;;5039472;28;45352;-68
2022/08/06 12:31:34;;;;;;;0.90;0.80;;;23.80;62.20;;;;;;5037772;28;46290;-66
2022/08/06 12:34:02;;;;;;;1.35;0.80;;;23.80;62.30;;;;;;5039313;28;45295;-67
2022/08/06 12:36:31;;;;;;;1.92;0.93;;;23.80;62.40;;;;;;5038762;28;45810;-68
2022/08/06 12:39:00;;;;;;;1.70;0.90;;;23.80;62.50;;;;;;5039352;28;45406;-67
2022/08/06 12:41:40;;;;;;;1.05;0.82;;;23.80;62.40;;;;;;5037794;28;48697;-67
2022/08/06 12:44:09;;;;;;;1.00;0.85;;;23.80;62.30;;;;;;5038073;28;45943;-67
2022/08/06 12:46:36;;;;;;;1.00;0.80;;;23.90;62.40;;;;;;5037083;28;45450;-67
2022/08/06 12:49:03;;;;;;;1.10;0.73;;;23.80;62.40;;;;;;5039240;28;45302;-67
2022/08/06 12:51:30;;;;;;;2.40;0.82;;;23.80;62.40;;;;;;5038029;28;46323;-67
2022/08/06 12:54:00;;;;;;;0.65;0.60;;;23.80;62.20;;;;;;5038663;28;45406;-67
2022/08/06 12:56:28;;;;;;;1.55;0.77;;;23.80;62.20;;;;;;5038878;28;45456;-67
2022/08/06 12:58:56;;;;;;;0.93;0.63;;;23.80;62.20;;;;;;5039085;28;45351;-68
2022/08/06 13:01:28;;;;;;;0.73;0.60;;;23.80;62.20;;;;;;5038200;28;46587;-67
2022/08/06 13:03:56;;;;;;;1.20;0.80;;;23.80;62.20;;;;;;5034497;28;45393;-67
2022/08/06 13:06:26;;;;;;;1.13;0.80;;;23.80;62.10;;;;;;5038721;28;45579;-67
2022/08/06 13:08:54;;;;;;;0.98;0.73;;;23.80;62.20;;;;;;5039048;28;45264;-67